^^
B2 Weather Station Historical Data
Daily Summary for January 4, 2017 Units:  English    Metric   Both
« Previous Day
Next Day »
Daily Weekly Monthly Yearly Custom
  High: Low: Average:
Temperature: 21.0 °F 11.8 °F 15.4 °F
Dew Point: 16.5 °F 4.9 °F 8.3 °F
Humidity: 83 % 59 % 73 %
Wind Speed: 21.9 mph 6.0 mph 14.4 mph
Wind Gust: 21.9 mph - -
Wind:- - WNW
Pressure: 30.13 in 29.96 in -
Precipitation: 0.00 in    
Historical Graphs
 
 
Tabular Data for January 4, 2017
Time Temperature Dew Point Pressure Wind Wind Speed Wind Gust Humidity Rainfall Rate (Hourly) solar Conditions
00:03 21.0 °F 16.4 °F 29.96 in West 19.6 mph 19.6 mph 82 % 0.00 in 0.0 W/m2 RA
00:08 20.9 °F 16.0 °F 29.96 in NW 13.8 mph 13.8 mph 81 % 0.00 in 0.0 W/m2 RA
00:13 20.8 °F 16.5 °F 29.96 in WNW 18.4 mph 18.4 mph 83 % 0.00 in 0.0 W/m2 CLR
00:18 20.6 °F 16.3 °F 29.96 in WSW 17.3 mph 17.3 mph 83 % 0.00 in 0.0 W/m2 CLR
00:23 20.3 °F 16.0 °F 29.96 in West 13.8 mph 13.8 mph 83 % 0.00 in 0.0 W/m2 CLR
00:28 20.2 °F 15.9 °F 29.97 in West 16.1 mph 16.1 mph 83 % 0.00 in 0.0 W/m2 CLR
00:33 19.9 °F 15.6 °F 29.97 in West 19.6 mph 19.6 mph 83 % 0.00 in 0.0 W/m2 SCT
00:38 19.7 °F 15.4 °F 29.98 in WNW 17.3 mph 17.3 mph 83 % 0.00 in 0.0 W/m2 SCT
00:43 19.6 °F 15.0 °F 29.98 in WNW 18.4 mph 18.4 mph 82 % 0.00 in 0.0 W/m2 SCT
00:48 19.5 °F 15.2 °F 29.98 in West 16.1 mph 16.1 mph 83 % 0.00 in 0.0 W/m2 SCT
00:53 19.3 °F 15.0 °F 29.99 in WNW 19.6 mph 19.6 mph 83 % 0.00 in 0.0 W/m2 SCT
00:58 19.2 °F 14.9 °F 29.99 in WNW 13.8 mph 13.8 mph 83 % 0.00 in 0.0 W/m2 SCT
01:03 19.0 °F 14.7 °F 29.99 in NW 11.5 mph 11.5 mph 83 % 0.00 in 0.0 W/m2 SCT
01:08 18.9 °F 14.3 °F 29.99 in West 13.8 mph 13.8 mph 82 % 0.00 in 0.0 W/m2 SCT
01:13 18.8 °F 14.2 °F 29.99 in NW 15.0 mph 15.0 mph 82 % 0.00 in 0.0 W/m2 SCT
01:18 18.5 °F 13.9 °F 30.00 in WSW 19.6 mph 19.6 mph 82 % 0.00 in 0.0 W/m2 CLR
01:23 18.2 °F 13.6 °F 30.00 in West 19.6 mph 19.6 mph 82 % 0.00 in 0.0 W/m2 CLR
01:28 18.1 °F 13.5 °F 30.00 in WNW 16.1 mph 16.1 mph 82 % 0.00 in 0.0 W/m2 CLR
01:33 18.0 °F 13.7 °F 30.01 in West 15.0 mph 15.0 mph 83 % 0.00 in 0.0 W/m2 CLR
01:38 17.6 °F 13.0 °F 30.00 in WSW 13.8 mph 13.8 mph 82 % 0.00 in 0.0 W/m2 CLR
01:43 17.5 °F 12.9 °F 30.01 in West 10.4 mph 10.4 mph 82 % 0.00 in 0.0 W/m2 CLR
01:48 17.1 °F 12.8 °F 30.01 in West 13.8 mph 13.8 mph 83 % 0.00 in 0.0 W/m2 CLR
01:53 16.8 °F 12.5 °F 30.01 in WSW 16.1 mph 16.1 mph 83 % 0.00 in 0.0 W/m2 CLR
01:58 16.5 °F 12.2 °F 30.02 in WNW 10.4 mph 10.4 mph 83 % 0.00 in 0.0 W/m2 CLR
02:03 16.4 °F 12.1 °F 30.02 in SW 16.1 mph 16.1 mph 83 % 0.00 in 0.0 W/m2 CLR
02:08 16.1 °F 11.8 °F 30.02 in NW 18.4 mph 18.4 mph 83 % 0.00 in 0.0 W/m2 CLR
02:13 16.0 °F 11.5 °F 30.02 in WNW 19.6 mph 19.6 mph 82 % 0.00 in 0.0 W/m2 CLR
02:18 15.8 °F 11.3 °F 30.02 in West 18.4 mph 18.4 mph 82 % 0.00 in 0.0 W/m2 CLR
02:23 15.7 °F 10.9 °F 30.02 in NW 16.1 mph 16.1 mph 81 % 0.00 in 0.0 W/m2 CLR
02:28 15.6 °F 11.1 °F 30.03 in WNW 16.1 mph 16.1 mph 82 % 0.00 in 0.0 W/m2 CLR
02:33 15.6 °F 11.1 °F 30.03 in WNW 18.4 mph 18.4 mph 82 % 0.00 in 0.0 W/m2 CLR
02:38 15.5 °F 11.0 °F 30.03 in WNW 15.0 mph 15.0 mph 82 % 0.00 in 0.0 W/m2 CLR
02:43 15.4 °F 10.9 °F 30.03 in West 19.6 mph 19.6 mph 82 % 0.00 in 0.0 W/m2 CLR
02:48 15.2 °F 10.4 °F 30.03 in WNW 12.7 mph 12.7 mph 81 % 0.00 in 0.0 W/m2 CLR
02:53 15.2 °F 10.7 °F 30.03 in NW 11.5 mph 11.5 mph 82 % 0.00 in 0.0 W/m2 CLR
02:58 15.1 °F 10.6 °F 30.03 in West 18.4 mph 18.4 mph 82 % 0.00 in 0.0 W/m2 CLR
03:03 15.1 °F 10.6 °F 30.03 in WNW 13.8 mph 13.8 mph 82 % 0.00 in 0.0 W/m2 CLR
03:08 15.0 °F 10.5 °F 30.03 in West 17.3 mph 17.3 mph 82 % 0.00 in 0.0 W/m2 CLR
03:13 15.0 °F 10.5 °F 30.03 in WSW 10.4 mph 10.4 mph 82 % 0.00 in 0.0 W/m2 CLR
03:18 14.7 °F 9.9 °F 30.03 in West 18.4 mph 18.4 mph 81 % 0.00 in 0.0 W/m2 CLR
03:23 14.5 °F 10.0 °F 30.03 in West 17.3 mph 17.3 mph 82 % 0.00 in 0.0 W/m2 CLR
03:28 14.4 °F 9.9 °F 30.03 in West 17.3 mph 17.3 mph 82 % 0.00 in 0.0 W/m2 CLR
03:33 14.4 °F 9.9 °F 30.03 in NW 13.8 mph 13.8 mph 82 % 0.00 in 0.0 W/m2 CLR
03:38 14.4 °F 9.6 °F 30.03 in WSW 11.5 mph 11.5 mph 81 % 0.00 in 0.0 W/m2 CLR
03:43 14.3 °F 9.5 °F 30.03 in West 6.0 mph 6.0 mph 81 % 0.00 in 0.0 W/m2 CLR
03:48 14.2 °F 9.4 °F 30.03 in WNW 18.4 mph 18.4 mph 81 % 0.00 in 0.0 W/m2 CLR
03:53 14.1 °F 9.3 °F 30.04 in SW 9.2 mph 9.2 mph 81 % 0.00 in 0.0 W/m2 CLR
03:58 13.9 °F 9.1 °F 30.03 in WNW 18.4 mph 18.4 mph 81 % 0.00 in 0.0 W/m2 CLR
04:03 13.8 °F 9.0 °F 30.03 in WNW 16.1 mph 16.1 mph 81 % 0.00 in 0.0 W/m2 CLR
04:08 13.8 °F 9.0 °F 30.04 in West 12.7 mph 12.7 mph 81 % 0.00 in 0.0 W/m2 CLR
04:13 13.7 °F 9.0 °F 30.04 in West 16.1 mph 16.1 mph 81 % 0.00 in 0.0 W/m2 CLR
04:18 13.6 °F 8.9 °F 30.05 in WNW 15.0 mph 15.0 mph 81 % 0.00 in 0.0 W/m2 CLR
04:23 13.6 °F 8.6 °F 30.04 in WNW 17.3 mph 17.3 mph 80 % 0.00 in 0.0 W/m2 CLR
04:28 13.6 °F 8.6 °F 30.04 in West 12.7 mph 12.7 mph 80 % 0.00 in 0.0 W/m2 CLR
04:33 13.5 °F 8.5 °F 30.05 in WNW 16.1 mph 16.1 mph 80 % 0.00 in 0.0 W/m2 CLR
04:38 13.3 °F 8.0 °F 30.04 in WNW 20.0 mph 20.0 mph 79 % 0.00 in 0.0 W/m2 CLR
04:43 13.2 °F 7.9 °F 30.05 in NW 17.3 mph 17.3 mph 79 % 0.00 in 0.0 W/m2 CLR
04:48 13.2 °F 7.9 °F 30.05 in West 16.1 mph 16.1 mph 79 % 0.00 in 0.0 W/m2 CLR
04:53 13.2 °F 8.2 °F 30.05 in NW 13.8 mph 13.8 mph 80 % 0.00 in 0.0 W/m2 CLR
04:58 13.2 °F 8.2 °F 30.05 in West 10.4 mph 10.4 mph 80 % 0.00 in 0.0 W/m2 CLR
05:03 13.2 °F 8.2 °F 30.05 in WNW 11.5 mph 11.5 mph 80 % 0.00 in 0.0 W/m2 CLR
05:08 13.2 °F 8.2 °F 30.05 in West 13.8 mph 13.8 mph 80 % 0.00 in 0.0 W/m2 CLR
05:13 13.1 °F 8.1 °F 30.05 in WNW 10.4 mph 10.4 mph 80 % 0.00 in 0.0 W/m2 CLR
05:18 13.1 °F 8.1 °F 30.06 in WNW 18.4 mph 18.4 mph 80 % 0.00 in 0.0 W/m2 CLR
05:23 13.0 °F 8.0 °F 30.06 in NW 13.0 mph 13.0 mph 80 % 0.00 in 0.0 W/m2 CLR
05:28 12.9 °F 7.6 °F 30.06 in WNW 17.3 mph 17.3 mph 79 % 0.00 in 0.0 W/m2 CLR
05:33 12.7 °F 7.4 °F 30.06 in NW 19.6 mph 19.6 mph 79 % 0.00 in 0.0 W/m2 CLR
05:38 12.7 °F 7.7 °F 30.07 in WNW 12.7 mph 12.7 mph 80 % 0.00 in 0.0 W/m2 CLR
05:43 12.7 °F 7.4 °F 30.07 in NW 17.3 mph 17.3 mph 79 % 0.00 in 0.0 W/m2 CLR
05:48 12.7 °F 7.7 °F 30.06 in SW 16.1 mph 16.1 mph 80 % 0.00 in 0.0 W/m2 CLR
05:53 12.6 °F 7.3 °F 30.06 in NW 15.0 mph 15.0 mph 79 % 0.00 in 0.0 W/m2 CLR
05:58 12.5 °F 7.2 °F 30.07 in WNW 12.7 mph 12.7 mph 79 % 0.00 in 0.0 W/m2 CLR
06:03 12.4 °F 6.8 °F 30.07 in WNW 11.5 mph 11.5 mph 78 % 0.00 in 0.0 W/m2 CLR
06:08 12.3 °F 7.0 °F 30.07 in WNW 12.7 mph 12.7 mph 79 % 0.00 in 0.0 W/m2 CLR
06:13 12.4 °F 7.4 °F 30.08 in WNW 17.0 mph 17.0 mph 80 % 0.00 in 0.0 W/m2 CLR
06:18 12.4 °F 7.1 °F 30.08 in WNW 11.5 mph 11.5 mph 79 % 0.00 in 0.0 W/m2 CLR
06:23 12.4 °F 7.1 °F 30.08 in WNW 13.8 mph 13.8 mph 79 % 0.00 in 0.0 W/m2 CLR
06:28 12.3 °F 7.0 °F 30.08 in West 18.4 mph 18.4 mph 79 % 0.00 in 0.0 W/m2 CLR
06:33 12.3 °F 7.0 °F 30.08 in WNW 13.0 mph 13.0 mph 79 % 0.00 in 0.0 W/m2 CLR
06:38 12.2 °F 6.9 °F 30.08 in WNW 11.5 mph 11.5 mph 79 % 0.00 in 0.0 W/m2 CLR
06:43 12.3 °F 7.0 °F 30.08 in West 11.5 mph 11.5 mph 79 % 0.00 in 0.0 W/m2 CLR
06:48 12.2 °F 7.2 °F 30.08 in WNW 13.0 mph 13.0 mph 80 % 0.00 in 0.0 W/m2 CLR
06:53 12.1 °F 7.1 °F 30.08 in West 16.0 mph 16.0 mph 80 % 0.00 in 0.0 W/m2 CLR
06:58 12.0 °F 6.7 °F 30.08 in WNW 18.4 mph 18.4 mph 79 % 0.00 in 0.0 W/m2 CLR
07:03 11.9 °F 6.9 °F 30.09 in West 17.0 mph 17.0 mph 80 % 0.00 in 0.0 W/m2 CLR
07:08 11.9 °F 6.9 °F 30.09 in WNW 20.7 mph 20.7 mph 80 % 0.00 in 0.0 W/m2 CLR
07:13 11.9 °F 6.9 °F 30.09 in West 15.0 mph 15.0 mph 80 % 0.00 in 0.0 W/m2 CLR
07:18 11.8 °F 6.8 °F 30.09 in NW 19.6 mph 19.6 mph 80 % 0.00 in 0.0 W/m2 CLR
07:23 11.8 °F 6.8 °F 30.09 in NW 13.8 mph 13.8 mph 80 % 0.00 in 7.0 W/m2 CLR
07:28 11.8 °F 6.8 °F 30.09 in West 10.0 mph 10.0 mph 80 % 0.00 in 9.0 W/m2 CLR
07:33 11.8 °F 7.1 °F 30.10 in West 10.4 mph 10.4 mph 81 % 0.00 in 11.0 W/m2 SCT
07:38 11.8 °F 6.8 °F 30.10 in WNW 14.0 mph 14.0 mph 80 % 0.00 in 16.0 W/m2 SCT
07:43 11.9 °F 6.9 °F 30.10 in West 13.8 mph 13.8 mph 80 % 0.00 in 21.0 W/m2 SCT
07:48 11.9 °F 6.9 °F 30.10 in NW 16.1 mph 16.1 mph 80 % 0.00 in 19.0 W/m2 CLR
07:53 11.9 °F 6.9 °F 30.10 in WSW 16.1 mph 16.1 mph 80 % 0.00 in 30.0 W/m2 CLR
07:58 11.9 °F 6.9 °F 30.11 in West 12.7 mph 12.7 mph 80 % 0.00 in 21.0 W/m2 CLR
08:03 11.8 °F 6.8 °F 30.10 in WSW 15.0 mph 15.0 mph 80 % 0.00 in 23.0 W/m2 SCT
08:08 11.9 °F 6.9 °F 30.11 in West 12.7 mph 12.7 mph 80 % 0.00 in 69.0 W/m2 SCT
08:13 12.1 °F 7.1 °F 30.11 in WNW 18.4 mph 18.4 mph 80 % 0.00 in 86.0 W/m2 SCT
08:18 12.2 °F 6.9 °F 30.11 in West 12.7 mph 12.7 mph 79 % 0.00 in 74.0 W/m2 SCT
08:23 12.3 °F 7.0 °F 30.11 in WSW 17.3 mph 17.3 mph 79 % 0.00 in 30.0 W/m2 SCT
08:28 12.1 °F 6.3 °F 30.11 in NW 14.0 mph 14.0 mph 77 % 0.00 in 127.0 W/m2 SCT
08:33 12.3 °F 7.0 °F 30.11 in WSW 11.5 mph 11.5 mph 79 % 0.00 in 98.0 W/m2 SCT
08:38 12.5 °F 7.2 °F 30.11 in WNW 11.5 mph 11.5 mph 79 % 0.00 in 155.0 W/m2 SCT
08:43 12.6 °F 7.0 °F 30.11 in WNW 21.9 mph 21.9 mph 78 % 0.00 in 165.0 W/m2 SCT
08:48 12.7 °F 6.9 °F 30.11 in WNW 12.7 mph 12.7 mph 77 % 0.00 in 179.0 W/m2 SCT
08:53 12.9 °F 7.3 °F 30.11 in West 12.0 mph 12.0 mph 78 % 0.00 in 193.0 W/m2 SCT
08:58 13.0 °F 7.1 °F 30.11 in SW 15.0 mph 15.0 mph 77 % 0.00 in 206.0 W/m2 SCT
09:03 13.0 °F 6.9 °F 30.12 in WSW 16.1 mph 16.1 mph 76 % 0.00 in 221.0 W/m2 SCT
09:08 13.1 °F 7.2 °F 30.12 in West 16.1 mph 16.1 mph 77 % 0.00 in 220.0 W/m2 SCT
09:13 13.2 °F 7.3 °F 30.12 in WSW 19.6 mph 19.6 mph 77 % 0.00 in 241.0 W/m2 SCT
09:18 13.4 °F 7.5 °F 30.12 in West 16.1 mph 16.1 mph 77 % 0.00 in 251.0 W/m2 SCT
09:23 13.7 °F 7.8 °F 30.12 in WNW 13.8 mph 13.8 mph 77 % 0.00 in 274.0 W/m2 SCT
09:28 13.7 °F 7.5 °F 30.12 in NW 20.7 mph 20.7 mph 76 % 0.00 in 274.0 W/m2 SCT
09:33 13.7 °F 7.5 °F 30.13 in West 16.1 mph 16.1 mph 76 % 0.00 in 281.0 W/m2 SCT
09:38 13.8 °F 7.6 °F 30.13 in NW 16.1 mph 16.1 mph 76 % 0.00 in 294.0 W/m2 SCT
09:43 14.0 °F 7.8 °F 30.12 in WSW 15.0 mph 15.0 mph 76 % 0.00 in 299.0 W/m2 SCT
09:48 14.1 °F 7.9 °F 30.12 in WSW 20.7 mph 20.7 mph 76 % 0.00 in 309.0 W/m2 SCT
09:53 14.1 °F 7.9 °F 30.13 in West 16.1 mph 16.1 mph 76 % 0.00 in 313.0 W/m2 SCT
09:58 14.3 °F 8.1 °F 30.13 in WSW 17.3 mph 17.3 mph 76 % 0.00 in 323.0 W/m2 SCT
10:03 14.5 °F 8.3 °F 30.13 in WNW 17.3 mph 17.3 mph 76 % 0.00 in 251.0 W/m2 SCT
10:08 14.8 °F 8.6 °F 30.13 in WSW 11.5 mph 11.5 mph 76 % 0.00 in 341.0 W/m2 SCT
10:13 14.9 °F 8.7 °F 30.13 in West 11.5 mph 11.5 mph 76 % 0.00 in 359.0 W/m2 SCT
10:18 15.1 °F 8.9 °F 30.13 in NW 13.0 mph 13.0 mph 76 % 0.00 in 313.0 W/m2 SCT
10:23 15.2 °F 8.7 °F 30.13 in SW 13.8 mph 13.8 mph 75 % 0.00 in 366.0 W/m2 SCT
10:28 15.3 °F 8.5 °F 30.13 in WSW 20.7 mph 20.7 mph 74 % 0.00 in 376.0 W/m2 SCT
10:29 15.3 °F 8.5 °F 30.13 in WNW 13.8 mph 13.8 mph 74 % 0.00 in 376.0 W/m2 SCT
10:34 15.3 °F 8.5 °F 30.13 in West 11.5 mph 11.5 mph 74 % 0.00 in 374.0 W/m2 SCT
10:39 15.8 °F 9.3 °F 30.13 in West 11.5 mph 11.5 mph 75 % 0.00 in 388.0 W/m2 SCT
10:44 15.8 °F 9.0 °F 30.13 in WNW 10.4 mph 10.4 mph 74 % 0.00 in 396.0 W/m2 SCT
10:49 16.0 °F 9.2 °F 30.13 in WNW 12.7 mph 12.7 mph 74 % 0.00 in 397.0 W/m2 SCT
10:54 15.9 °F 8.8 °F 30.13 in West 16.1 mph 16.1 mph 73 % 0.00 in 401.0 W/m2 SCT
10:59 16.1 °F 9.3 °F 30.13 in NW 15.0 mph 15.0 mph 74 % 0.00 in 438.0 W/m2 SCT
11:04 16.0 °F 9.2 °F 30.13 in NW 13.8 mph 13.8 mph 74 % 0.00 in 406.0 W/m2 SCT
11:09 16.2 °F 9.4 °F 30.12 in WNW 15.0 mph 15.0 mph 74 % 0.00 in 452.0 W/m2 SCT
11:14 16.6 °F 9.1 °F 30.12 in West 17.3 mph 17.3 mph 72 % 0.00 in 429.0 W/m2 SCT
11:19 16.7 °F 9.5 °F 30.12 in WNW 18.4 mph 18.4 mph 73 % 0.00 in 457.0 W/m2 SCT
11:24 16.9 °F 9.7 °F 30.12 in WSW 11.5 mph 11.5 mph 73 % 0.00 in 445.0 W/m2 SCT
11:29 17.0 °F 9.8 °F 30.11 in WSW 13.8 mph 13.8 mph 73 % 0.00 in 485.0 W/m2 SCT
11:34 17.2 °F 10.0 °F 30.12 in WNW 17.3 mph 17.3 mph 73 % 0.00 in 452.0 W/m2 SCT
11:39 16.7 °F 8.9 °F 30.11 in NW 16.1 mph 16.1 mph 71 % 0.00 in 265.0 W/m2 SCT
11:44 16.7 °F 9.2 °F 30.11 in NW 12.7 mph 12.7 mph 72 % 0.00 in 457.0 W/m2 SCT
11:49 16.9 °F 9.4 °F 30.11 in WSW 13.0 mph 13.0 mph 72 % 0.00 in 450.0 W/m2 SCT
11:54 17.3 °F 10.1 °F 30.11 in West 8.1 mph 8.1 mph 73 % 0.00 in 448.0 W/m2 SCT
11:59 17.4 °F 9.6 °F 30.10 in West 16.1 mph 16.1 mph 71 % 0.00 in 475.0 W/m2 SCT
12:04 17.6 °F 9.8 °F 30.10 in West 16.1 mph 16.1 mph 71 % 0.00 in 443.0 W/m2 SCT
12:09 17.5 °F 9.7 °F 30.11 in West 11.5 mph 11.5 mph 71 % 0.00 in 446.0 W/m2 SCT
12:14 17.3 °F 8.9 °F 30.11 in NW 17.3 mph 17.3 mph 69 % 0.00 in 443.0 W/m2 SCT
12:19 17.6 °F 9.2 °F 30.10 in West 13.8 mph 13.8 mph 69 % 0.00 in 459.0 W/m2 SCT
12:24 17.9 °F 9.8 °F 30.10 in West 11.5 mph 11.5 mph 70 % 0.00 in 441.0 W/m2 SCT
12:29 17.7 °F 9.2 °F 30.10 in WNW 15.0 mph 15.0 mph 69 % 0.00 in 448.0 W/m2 SCT
12:34 18.2 °F 10.1 °F 30.10 in WSW 15.0 mph 15.0 mph 70 % 0.00 in 454.0 W/m2 SCT
12:39 18.1 °F 9.6 °F 30.10 in WNW 18.4 mph 18.4 mph 69 % 0.00 in 431.0 W/m2 SCT
12:44 17.9 °F 9.4 °F 30.10 in West 15.0 mph 15.0 mph 69 % 0.00 in 427.0 W/m2 SCT
12:49 18.1 °F 10.0 °F 30.10 in SSW 16.0 mph 16.0 mph 70 % 0.00 in 427.0 W/m2 SCT
12:54 18.2 °F 9.4 °F 30.10 in WNW 16.1 mph 16.1 mph 68 % 0.00 in 422.0 W/m2 SCT
12:59 18.3 °F 9.8 °F 30.09 in NW 18.4 mph 18.4 mph 69 % 0.00 in 418.0 W/m2 SCT
13:04 18.2 °F 9.1 °F 30.09 in WSW 12.7 mph 12.7 mph 67 % 0.00 in 401.0 W/m2 SCT
13:09 18.2 °F 9.4 °F 30.09 in WSW 18.4 mph 18.4 mph 68 % 0.00 in 415.0 W/m2 SCT
13:14 18.6 °F 10.1 °F 30.09 in NW 15.0 mph 15.0 mph 69 % 0.00 in 432.0 W/m2 SCT
13:19 18.5 °F 9.4 °F 30.09 in NW 11.5 mph 11.5 mph 67 % 0.00 in 401.0 W/m2 SCT
13:24 18.6 °F 9.5 °F 30.09 in WSW 15.0 mph 15.0 mph 67 % 0.00 in 401.0 W/m2 SCT
13:29 18.3 °F 9.2 °F 30.09 in WSW 12.7 mph 12.7 mph 67 % 0.00 in 169.0 W/m2 SCT
13:34 18.4 °F 9.9 °F 30.09 in West 18.0 mph 18.0 mph 69 % 0.00 in 448.0 W/m2 SCT
13:39 18.8 °F 10.6 °F 30.09 in West 15.0 mph 15.0 mph 70 % 0.00 in 417.0 W/m2 SCT
13:44 19.1 °F 9.9 °F 30.09 in NW 13.0 mph 13.0 mph 67 % 0.00 in 388.0 W/m2 SCT
13:49 19.2 °F 10.0 °F 30.09 in WNW 21.9 mph 21.9 mph 67 % 0.00 in 167.0 W/m2 SCT
13:54 18.8 °F 9.0 °F 30.09 in West 19.6 mph 19.6 mph 65 % 0.00 in 373.0 W/m2 SCT
13:59 18.9 °F 9.1 °F 30.09 in WNW 16.1 mph 16.1 mph 65 % 0.00 in 359.0 W/m2 SCT
14:04 18.9 °F 9.7 °F 30.09 in WSW 13.8 mph 13.8 mph 67 % 0.00 in 359.0 W/m2 SCT
14:09 19.3 °F 10.1 °F 30.10 in WSW 12.7 mph 12.7 mph 67 % 0.00 in 353.0 W/m2 SCT
14:14 19.0 °F 8.5 °F 30.10 in WNW 15.0 mph 15.0 mph 63 % 0.00 in 318.0 W/m2 SCT
14:19 18.9 °F 8.4 °F 30.10 in WSW 17.3 mph 17.3 mph 63 % 0.00 in 308.0 W/m2 SCT
14:24 18.9 °F 9.4 °F 30.09 in WSW 12.7 mph 12.7 mph 66 % 0.00 in 304.0 W/m2 SCT
14:29 19.0 °F 9.2 °F 30.09 in West 18.4 mph 18.4 mph 65 % 0.00 in 288.0 W/m2 SCT
14:34 19.0 °F 8.5 °F 30.09 in West 18.4 mph 18.4 mph 63 % 0.00 in 278.0 W/m2 SCT
14:39 19.0 °F 8.8 °F 30.09 in WNW 19.6 mph 19.6 mph 64 % 0.00 in 267.0 W/m2 SCT
14:44 19.2 °F 9.4 °F 30.09 in WSW 17.3 mph 17.3 mph 65 % 0.00 in 250.0 W/m2 SCT
14:49 19.0 °F 8.5 °F 30.09 in West 15.0 mph 15.0 mph 63 % 0.00 in 236.0 W/m2 SCT
14:54 19.0 °F 7.4 °F 30.09 in WNW 20.7 mph 20.7 mph 60 % 0.00 in 221.0 W/m2 SCT
14:59 18.8 °F 7.6 °F 30.09 in WNW 17.3 mph 17.3 mph 61 % 0.00 in 209.0 W/m2 SCT
15:04 19.0 °F 8.5 °F 30.09 in WSW 13.8 mph 13.8 mph 63 % 0.00 in 197.0 W/m2 SCT
15:09 19.0 °F 8.5 °F 30.10 in NW 13.8 mph 13.8 mph 63 % 0.00 in 178.0 W/m2 SCT
15:14 18.9 °F 6.9 °F 30.10 in WSW 18.4 mph 18.4 mph 59 % 0.00 in 162.0 W/m2 SCT
15:19 18.8 °F 7.6 °F 30.10 in WNW 17.3 mph 17.3 mph 61 % 0.00 in 81.0 W/m2 SCT
15:24 18.5 °F 7.6 °F 30.10 in West 10.4 mph 10.4 mph 62 % 0.00 in 77.0 W/m2 SCT
15:29 18.5 °F 8.0 °F 30.09 in West 11.5 mph 11.5 mph 63 % 0.00 in 111.0 W/m2 SCT
15:34 18.4 °F 6.8 °F 30.09 in WNW 16.1 mph 16.1 mph 60 % 0.00 in 104.0 W/m2 CLR
15:39 18.2 °F 6.6 °F 30.09 in WNW 16.1 mph 16.1 mph 60 % 0.00 in 77.0 W/m2 CLR
15:44 17.9 °F 6.7 °F 30.10 in WNW 13.8 mph 13.8 mph 61 % 0.00 in 39.0 W/m2 CLR
15:49 17.8 °F 6.6 °F 30.10 in WSW 15.0 mph 15.0 mph 61 % 0.00 in 25.0 W/m2 CLR
15:54 17.7 °F 6.9 °F 30.10 in West 15.0 mph 15.0 mph 62 % 0.00 in 25.0 W/m2 CLR
15:59 17.8 °F 7.7 °F 30.10 in West 11.5 mph 11.5 mph 64 % 0.00 in 25.0 W/m2 CLR
16:04 17.7 °F 7.2 °F 30.10 in West 20.7 mph 20.7 mph 63 % 0.00 in 21.0 W/m2 CLR
16:09 17.6 °F 6.1 °F 30.10 in West 16.1 mph 16.1 mph 60 % 0.00 in 18.0 W/m2 CLR
16:14 17.5 °F 6.3 °F 30.11 in West 16.1 mph 16.1 mph 61 % 0.00 in 16.0 W/m2 CLR
16:19 17.3 °F 6.5 °F 30.11 in West 11.5 mph 11.5 mph 62 % 0.00 in 11.0 W/m2 CLR
16:24 17.2 °F 6.0 °F 30.11 in West 16.1 mph 16.1 mph 61 % 0.00 in 7.0 W/m2 CLR
16:29 17.2 °F 6.0 °F 30.11 in WSW 15.0 mph 15.0 mph 61 % 0.00 in 0.0 W/m2 CLR
16:34 17.0 °F 5.9 °F 30.11 in WNW 11.5 mph 11.5 mph 61 % 0.00 in 0.0 W/m2 CLR
16:39 17.0 °F 6.2 °F 30.11 in WNW 9.2 mph 9.2 mph 62 % 0.00 in 0.0 W/m2 CLR
16:45 16.9 °F 6.8 °F 30.11 in SW 13.0 mph 13.0 mph 64 % 0.00 in 0.0 W/m2 CLR
16:54 16.8 °F 6.4 °F 30.11 in West 15.0 mph 15.0 mph 63 % 0.00 in 0.0 W/m2 CLR
17:02 16.8 °F 6.4 °F 30.11 in WNW 16.1 mph 16.1 mph 63 % 0.00 in 0.0 W/m2 CLR
17:07 16.7 °F 5.9 °F 30.11 in WNW 11.5 mph 11.5 mph 62 % 0.00 in 0.0 W/m2 CLR
17:12 16.6 °F 6.2 °F 30.11 in West 16.0 mph 16.0 mph 63 % 0.00 in 0.0 W/m2 CLR
17:17 16.5 °F 6.4 °F 30.12 in West 13.8 mph 13.8 mph 64 % 0.00 in 0.0 W/m2 CLR
17:22 16.4 °F 6.3 °F 30.11 in WNW 12.7 mph 12.7 mph 64 % 0.00 in 0.0 W/m2 CLR
17:27 16.3 °F 6.2 °F 30.12 in WNW 11.5 mph 11.5 mph 64 % 0.00 in 0.0 W/m2 CLR
17:32 16.3 °F 6.6 °F 30.11 in WNW 11.5 mph 11.5 mph 65 % 0.00 in 0.0 W/m2 CLR
17:37 16.2 °F 6.1 °F 30.11 in NW 9.2 mph 9.2 mph 64 % 0.00 in 0.0 W/m2 CLR
17:42 16.0 °F 6.3 °F 30.11 in NW 6.0 mph 6.0 mph 65 % 0.00 in 0.0 W/m2 CLR
17:47 15.9 °F 6.5 °F 30.11 in WNW 11.5 mph 11.5 mph 66 % 0.00 in 0.0 W/m2 CLR
17:52 15.9 °F 6.2 °F 30.11 in West 12.7 mph 12.7 mph 65 % 0.00 in 0.0 W/m2 CLR
17:57 15.9 °F 6.2 °F 30.12 in West 11.5 mph 11.5 mph 65 % 0.00 in 0.0 W/m2 CLR
18:02 15.9 °F 6.5 °F 30.11 in WNW 11.0 mph 11.0 mph 66 % 0.00 in 0.0 W/m2 CLR
18:07 15.7 °F 6.0 °F 30.11 in West 15.0 mph 15.0 mph 65 % 0.00 in 0.0 W/m2 CLR
18:12 15.7 °F 6.3 °F 30.11 in WNW 11.5 mph 11.5 mph 66 % 0.00 in 0.0 W/m2 CLR
18:17 15.6 °F 6.3 °F 30.11 in WNW 13.8 mph 13.8 mph 66 % 0.00 in 0.0 W/m2 CLR
18:22 15.5 °F 6.2 °F 30.10 in WNW 11.5 mph 11.5 mph 66 % 0.00 in 0.0 W/m2 CLR
18:27 15.5 °F 6.5 °F 30.10 in West 11.5 mph 11.5 mph 67 % 0.00 in 0.0 W/m2 CLR
18:32 15.5 °F 6.8 °F 30.10 in WNW 13.0 mph 13.0 mph 68 % 0.00 in 0.0 W/m2 CLR
18:37 15.4 °F 6.7 °F 30.10 in WNW 11.5 mph 11.5 mph 68 % 0.00 in 0.0 W/m2 CLR
18:42 15.4 °F 6.7 °F 30.10 in WNW 12.7 mph 12.7 mph 68 % 0.00 in 0.0 W/m2 CLR
18:47 15.3 °F 6.6 °F 30.10 in NW 16.1 mph 16.1 mph 68 % 0.00 in 0.0 W/m2 CLR
18:52 15.2 °F 6.8 °F 30.10 in WNW 12.7 mph 12.7 mph 69 % 0.00 in 0.0 W/m2 CLR
18:57 15.2 °F 6.8 °F 30.11 in WNW 11.5 mph 11.5 mph 69 % 0.00 in 0.0 W/m2 CLR
19:02 15.2 °F 7.2 °F 30.10 in West 11.5 mph 11.5 mph 70 % 0.00 in 0.0 W/m2 CLR
19:07 15.2 °F 7.2 °F 30.10 in WSW 12.7 mph 12.7 mph 70 % 0.00 in 0.0 W/m2 CLR
19:12 15.2 °F 7.2 °F 30.11 in WNW 10.0 mph 10.0 mph 70 % 0.00 in 0.0 W/m2 CLR
19:17 15.2 °F 7.2 °F 30.10 in WNW 8.1 mph 8.1 mph 70 % 0.00 in 0.0 W/m2 CLR
19:22 15.1 °F 7.1 °F 30.10 in NW 9.2 mph 9.2 mph 70 % 0.00 in 0.0 W/m2 CLR
19:27 15.1 °F 7.1 °F 30.10 in WNW 6.9 mph 6.9 mph 70 % 0.00 in 0.0 W/m2 CLR
19:32 15.0 °F 7.0 °F 30.10 in NW 11.5 mph 11.5 mph 70 % 0.00 in 0.0 W/m2 CLR
19:37 15.0 °F 7.0 °F 30.10 in NW 11.5 mph 11.5 mph 70 % 0.00 in 0.0 W/m2 CLR
19:42 14.9 °F 6.9 °F 30.10 in NW 11.5 mph 11.5 mph 70 % 0.00 in 0.0 W/m2 CLR
19:47 14.8 °F 6.8 °F 30.10 in NW 11.5 mph 11.5 mph 70 % 0.00 in 0.0 W/m2 CLR
19:52 14.8 °F 6.8 °F 30.10 in West 13.8 mph 13.8 mph 70 % 0.00 in 0.0 W/m2 CLR
19:57 14.6 °F 6.6 °F 30.10 in WNW 11.5 mph 11.5 mph 70 % 0.00 in 0.0 W/m2 CLR
20:02 14.6 °F 6.6 °F 30.10 in WNW 8.1 mph 8.1 mph 70 % 0.00 in 0.0 W/m2 CLR
20:08 14.5 °F 6.5 °F 30.11 in WNW 9.2 mph 9.2 mph 70 % 0.00 in 0.0 W/m2 CLR
20:13 14.4 °F 6.4 °F 30.11 in WNW 11.5 mph 11.5 mph 70 % 0.00 in 0.0 W/m2 CLR
20:18 14.3 °F 6.6 °F 30.11 in West 9.2 mph 9.2 mph 71 % 0.00 in 0.0 W/m2 CLR
20:23 14.3 °F 6.6 °F 30.12 in West 10.4 mph 10.4 mph 71 % 0.00 in 0.0 W/m2 CLR
20:28 14.2 °F 6.2 °F 30.12 in West 15.0 mph 15.0 mph 70 % 0.00 in 0.0 W/m2 CLR
20:33 14.2 °F 6.2 °F 30.11 in WNW 12.7 mph 12.7 mph 70 % 0.00 in 0.0 W/m2 CLR
20:38 14.1 °F 6.1 °F 30.11 in West 16.1 mph 16.1 mph 70 % 0.00 in 0.0 W/m2 CLR
20:43 14.0 °F 5.7 °F 30.11 in West 20.0 mph 20.0 mph 69 % 0.00 in 0.0 W/m2 CLR
20:48 14.0 °F 5.7 °F 30.11 in NW 16.1 mph 16.1 mph 69 % 0.00 in 0.0 W/m2 CLR
20:53 13.9 °F 5.6 °F 30.11 in West 16.1 mph 16.1 mph 69 % 0.00 in 0.0 W/m2 CLR
20:58 13.9 °F 5.6 °F 30.11 in West 11.5 mph 11.5 mph 69 % 0.00 in 0.0 W/m2 CLR
21:03 13.9 °F 5.9 °F 30.11 in NW 12.7 mph 12.7 mph 70 % 0.00 in 0.0 W/m2 CLR
21:08 13.9 °F 5.9 °F 30.12 in WSW 12.7 mph 12.7 mph 70 % 0.00 in 0.0 W/m2 CLR
21:13 13.9 °F 5.9 °F 30.12 in West 16.1 mph 16.1 mph 70 % 0.00 in 0.0 W/m2 CLR
21:18 13.9 °F 5.6 °F 30.11 in West 13.8 mph 13.8 mph 69 % 0.00 in 0.0 W/m2 CLR
21:23 13.8 °F 5.8 °F 30.11 in West 18.4 mph 18.4 mph 70 % 0.00 in 0.0 W/m2 CLR
21:28 13.7 °F 5.7 °F 30.12 in WSW 13.8 mph 13.8 mph 70 % 0.00 in 0.0 W/m2 CLR
21:33 13.7 °F 5.7 °F 30.11 in WNW 15.0 mph 15.0 mph 70 % 0.00 in 0.0 W/m2 SCT
21:38 13.8 °F 6.1 °F 30.11 in WNW 14.0 mph 14.0 mph 71 % 0.00 in 0.0 W/m2 SCT
21:43 13.7 °F 6.0 °F 30.11 in WNW 16.1 mph 16.1 mph 71 % 0.00 in 0.0 W/m2 SCT
21:48 13.8 °F 6.1 °F 30.11 in WNW 11.5 mph 11.5 mph 71 % 0.00 in 0.0 W/m2 SCT
21:53 13.7 °F 5.7 °F 30.11 in WSW 19.6 mph 19.6 mph 70 % 0.00 in 0.0 W/m2 SCT
21:58 13.7 °F 5.7 °F 30.11 in West 17.3 mph 17.3 mph 70 % 0.00 in 0.0 W/m2 SCT
22:03 13.6 °F 5.6 °F 30.12 in WNW 11.5 mph 11.5 mph 70 % 0.00 in 0.0 W/m2 BKN
22:08 13.5 °F 5.5 °F 30.12 in WNW 13.8 mph 13.8 mph 70 % 0.00 in 0.0 W/m2 BKN
22:13 13.5 °F 5.5 °F 30.12 in WSW 11.5 mph 11.5 mph 70 % 0.00 in 0.0 W/m2 BKN
22:18 13.5 °F 5.8 °F 30.12 in WNW 11.5 mph 11.5 mph 71 % 0.00 in 0.0 W/m2 BKN
22:23 13.5 °F 5.8 °F 30.12 in West 12.7 mph 12.7 mph 71 % 0.00 in 0.0 W/m2 BKN
22:28 13.5 °F 5.8 °F 30.13 in WSW 12.7 mph 12.7 mph 71 % 0.00 in 0.0 W/m2 BKN
22:33 13.5 °F 5.8 °F 30.12 in NW 12.7 mph 12.7 mph 71 % 0.00 in 0.0 W/m2 BKN
22:38 13.4 °F 5.7 °F 30.13 in WNW 11.5 mph 11.5 mph 71 % 0.00 in 0.0 W/m2 BKN
22:43 13.4 °F 5.7 °F 30.12 in NW 17.3 mph 17.3 mph 71 % 0.00 in 0.0 W/m2 BKN
22:48 13.4 °F 5.7 °F 30.12 in West 10.4 mph 10.4 mph 71 % 0.00 in 0.0 W/m2 OVC
22:53 13.3 °F 5.6 °F 30.12 in WNW 11.5 mph 11.5 mph 71 % 0.00 in 0.0 W/m2 OVC
22:58 13.3 °F 6.0 °F 30.12 in WNW 11.5 mph 11.5 mph 72 % 0.00 in 0.0 W/m2 OVC
23:03 13.3 °F 6.3 °F 30.12 in WSW 16.1 mph 16.1 mph 73 % 0.00 in 0.0 W/m2 OVC
23:08 13.3 °F 6.3 °F 30.12 in WNW 11.5 mph 11.5 mph 73 % 0.00 in 0.0 W/m2 OVC
23:13 13.3 °F 6.6 °F 30.12 in WNW 11.5 mph 11.5 mph 74 % 0.00 in 0.0 W/m2 OVC
23:18 13.1 °F 6.4 °F 30.12 in West 11.5 mph 11.5 mph 74 % 0.00 in 0.0 W/m2 OVC
23:23 13.0 °F 6.3 °F 30.11 in WNW 10.4 mph 10.4 mph 74 % 0.00 in 0.0 W/m2 OVC
23:28 12.8 °F 5.5 °F 30.11 in WNW 13.8 mph 13.8 mph 72 % 0.00 in 0.0 W/m2 OVC
23:33 12.6 °F 5.0 °F 30.11 in WNW 12.7 mph 12.7 mph 71 % 0.00 in 0.0 W/m2 OVC
23:38 12.5 °F 4.9 °F 30.11 in NW 10.0 mph 10.0 mph 71 % 0.00 in 0.0 W/m2 OVC
23:43 12.4 °F 5.1 °F 30.11 in West 12.7 mph 12.7 mph 72 % 0.00 in 0.0 W/m2 OVC
23:48 12.4 °F 5.1 °F 30.11 in WSW 11.5 mph 11.5 mph 72 % 0.00 in 0.0 W/m2 OVC
23:53 12.4 °F 5.1 °F 30.11 in WNW 10.4 mph 10.4 mph 72 % 0.00 in 0.0 W/m2 OVC
23:58 12.2 °F 4.9 °F 30.11 in NW 11.5 mph 11.5 mph 72 % 0.00 in 0.0 W/m2 OVC
Bourbonnais, Illinois, USA
Compliments of Weather Underground - 3.5 mb